sensor_id;sensor_type;location;lat;lon;timestamp;temperature;humidity
47757;SHT35;22147;52.388;13.390;2023-05-10T00:00:18;11.47;62.45
47757;SHT35;22147;52.388;13.390;2023-05-10T00:02:50;11.47;62.62
47757;SHT35;22147;52.388;13.390;2023-05-10T00:05:18;11.43;63.05
47757;SHT35;22147;52.388;13.390;2023-05-10T00:07:47;11.38;63.25
47757;SHT35;22147;52.388;13.390;2023-05-10T00:14:33;11.22;63.93
47757;SHT35;22147;52.388;13.390;2023-05-10T00:17:03;11.17;64.22
47757;SHT35;22147;52.388;13.390;2023-05-10T00:19:33;11.14;64.38
47757;SHT35;22147;52.388;13.390;2023-05-10T00:22:03;11.11;64.27
47757;SHT35;22147;52.388;13.390;2023-05-10T00:24:32;11.07;64.54
47757;SHT35;22147;52.388;13.390;2023-05-10T00:27:02;11.04;64.77
47757;SHT35;22147;52.388;13.390;2023-05-10T00:29:33;11.02;64.70
47757;SHT35;22147;52.388;13.390;2023-05-10T00:32:04;10.99;64.76
47757;SHT35;22147;52.388;13.390;2023-05-10T00:34:34;10.92;65.18
47757;SHT35;22147;52.388;13.390;2023-05-10T00:37:03;10.87;65.16
47757;SHT35;22147;52.388;13.390;2023-05-10T00:39:33;10.88;65.23
47757;SHT35;22147;52.388;13.390;2023-05-10T00:42:05;10.90;65.19
47757;SHT35;22147;52.388;13.390;2023-05-10T00:44:37;10.87;65.64
47757;SHT35;22147;52.388;13.390;2023-05-10T00:47:05;10.81;65.62
47757;SHT35;22147;52.388;13.390;2023-05-10T00:49:35;10.85;65.34
47757;SHT35;22147;52.388;13.390;2023-05-10T00:52:05;10.84;65.44
47757;SHT35;22147;52.388;13.390;2023-05-10T00:54:34;10.80;65.58
47757;SHT35;22147;52.388;13.390;2023-05-10T00:57:02;10.84;65.32
47757;SHT35;22147;52.388;13.390;2023-05-10T00:59:30;10.81;65.43
47757;SHT35;22147;52.388;13.390;2023-05-10T01:01:59;10.81;65.33
47757;SHT35;22147;52.388;13.390;2023-05-10T01:04:27;10.81;65.06
47757;SHT35;22147;52.388;13.390;2023-05-10T01:06:56;10.84;65.48
47757;SHT35;22147;52.388;13.390;2023-05-10T01:09:24;10.77;65.11
47757;SHT35;22147;52.388;13.390;2023-05-10T01:11:57;10.83;65.17
47757;SHT35;22147;52.388;13.390;2023-05-10T01:14:28;10.78;65.36
47757;SHT35;22147;52.388;13.390;2023-05-10T01:17:00;10.77;65.19
47757;SHT35;22147;52.388;13.390;2023-05-10T01:19:31;10.73;65.26
47757;SHT35;22147;52.388;13.390;2023-05-10T01:23:07;10.73;65.18
47757;SHT35;22147;52.388;13.390;2023-05-10T01:29:24;10.70;65.28
47757;SHT35;22147;52.388;13.390;2023-05-10T01:37:56;10.56;65.74
47757;SHT35;22147;52.388;13.390;2023-05-10T01:43:37;10.46;66.25
47757;SHT35;22147;52.388;13.390;2023-05-10T01:46:28;10.46;66.31
47757;SHT35;22147;52.388;13.390;2023-05-10T01:49:13;10.43;66.53
47757;SHT35;22147;52.388;13.390;2023-05-10T01:51:53;10.40;66.49
47757;SHT35;22147;52.388;13.390;2023-05-10T01:54:30;10.38;66.53
47757;SHT35;22147;52.388;13.390;2023-05-10T01:57:08;10.36;66.78
47757;SHT35;22147;52.388;13.390;2023-05-10T01:59:45;10.32;67.12
47757;SHT35;22147;52.388;13.390;2023-05-10T02:02:23;10.26;67.19
47757;SHT35;22147;52.388;13.390;2023-05-10T02:04:57;10.26;67.05
47757;SHT35;22147;52.388;13.390;2023-05-10T02:07:33;10.20;67.30
47757;SHT35;22147;52.388;13.390;2023-05-10T02:10:07;10.15;67.67
47757;SHT35;22147;52.388;13.390;2023-05-10T02:12:46;10.12;67.76
47757;SHT35;22147;52.388;13.390;2023-05-10T02:15:24;10.09;67.98
47757;SHT35;22147;52.388;13.390;2023-05-10T02:17:59;10.03;67.99
47757;SHT35;22147;52.388;13.390;2023-05-10T02:20:34;10.01;68.08
47757;SHT35;22147;52.388;13.390;2023-05-10T02:23:08;10.01;68.31
47757;SHT35;22147;52.388;13.390;2023-05-10T02:25:43;9.95;68.42
47757;SHT35;22147;52.388;13.390;2023-05-10T02:28:16;9.91;68.65
47757;SHT35;22147;52.388;13.390;2023-05-10T02:30:48;9.82;68.90
47757;SHT35;22147;52.388;13.390;2023-05-10T02:33:22;9.81;69.09
47757;SHT35;22147;52.388;13.390;2023-05-10T02:35:52;9.80;69.21
47757;SHT35;22147;52.388;13.390;2023-05-10T02:38:25;9.75;69.31
47757;SHT35;22147;52.388;13.390;2023-05-10T02:40:59;9.74;69.55
47757;SHT35;22147;52.388;13.390;2023-05-10T02:43:33;9.69;69.69
47757;SHT35;22147;52.388;13.390;2023-05-10T02:46:03;9.65;69.69
47757;SHT35;22147;52.388;13.390;2023-05-10T02:48:34;9.61;69.91
47757;SHT35;22147;52.388;13.390;2023-05-10T02:51:08;9.57;69.97
47757;SHT35;22147;52.388;13.390;2023-05-10T02:53:46;9.50;70.30
47757;SHT35;22147;52.388;13.390;2023-05-10T02:56:36;9.54;70.32
47757;SHT35;22147;52.388;13.390;2023-05-10T02:59:06;9.50;70.56
47757;SHT35;22147;52.388;13.390;2023-05-10T03:01:36;9.44;70.72
47757;SHT35;22147;52.388;13.390;2023-05-10T03:04:06;9.37;70.94
47757;SHT35;22147;52.388;13.390;2023-05-10T03:06:37;9.33;70.92
47757;SHT35;22147;52.388;13.390;2023-05-10T03:09:09;9.32;71.19
47757;SHT35;22147;52.388;13.390;2023-05-10T03:16:10;9.27;71.33
47757;SHT35;22147;52.388;13.390;2023-05-10T03:18:55;9.24;71.24
47757;SHT35;22147;52.388;13.390;2023-05-10T03:21:31;9.20;71.58
47757;SHT35;22147;52.388;13.390;2023-05-10T03:24:13;9.20;71.59
47757;SHT35;22147;52.388;13.390;2023-05-10T03:26:46;9.19;71.51
47757;SHT35;22147;52.388;13.390;2023-05-10T03:29:19;9.20;71.65
47757;SHT35;22147;52.388;13.390;2023-05-10T03:31:50;9.20;71.66
47757;SHT35;22147;52.388;13.390;2023-05-10T03:34:24;9.15;71.74
47757;SHT35;22147;52.388;13.390;2023-05-10T03:36:54;9.12;71.92
47757;SHT35;22147;52.388;13.390;2023-05-10T03:39:25;9.11;72.00
47757;SHT35;22147;52.388;13.390;2023-05-10T03:41:55;9.12;71.72
47757;SHT35;22147;52.388;13.390;2023-05-10T03:44:25;9.13;71.78
47757;SHT35;22147;52.388;13.390;2023-05-10T03:46:55;9.11;71.76
47757;SHT35;22147;52.388;13.390;2023-05-10T03:49:26;9.12;71.83
47757;SHT35;22147;52.388;13.390;2023-05-10T03:51:57;9.08;71.91
47757;SHT35;22147;52.388;13.390;2023-05-10T03:54:27;9.08;71.78
47757;SHT35;22147;52.388;13.390;2023-05-10T03:56:57;9.11;71.80
47757;SHT35;22147;52.388;13.390;2023-05-10T03:59:27;9.20;71.49
47757;SHT35;22147;52.388;13.390;2023-05-10T04:01:57;9.20;71.26
47757;SHT35;22147;52.388;13.390;2023-05-10T04:04:27;9.30;71.12
47757;SHT35;22147;52.388;13.390;2023-05-10T04:06:57;9.30;71.08
47757;SHT35;22147;52.388;13.390;2023-05-10T04:09:28;9.32;70.99
47757;SHT35;22147;52.388;13.390;2023-05-10T04:11:59;9.37;71.32
47757;SHT35;22147;52.388;13.390;2023-05-10T04:14:32;9.42;70.44
47757;SHT35;22147;52.388;13.390;2023-05-10T04:17:02;9.42;70.55
47757;SHT35;22147;52.388;13.390;2023-05-10T04:19:33;9.42;70.36
47757;SHT35;22147;52.388;13.390;2023-05-10T04:22:03;9.46;70.37
47757;SHT35;22147;52.388;13.390;2023-05-10T04:24:33;9.54;70.12
47757;SHT35;22147;52.388;13.390;2023-05-10T04:27:03;9.55;70.29
47757;SHT35;22147;52.388;13.390;2023-05-10T04:29:34;9.65;69.71
47757;SHT35;22147;52.388;13.390;2023-05-10T04:32:03;9.67;69.40
47757;SHT35;22147;52.388;13.390;2023-05-10T04:34:31;9.74;69.51
47757;SHT35;22147;52.388;13.390;2023-05-10T04:37:02;9.80;69.36
47757;SHT35;22147;52.388;13.390;2023-05-10T04:39:31;9.82;69.21
47757;SHT35;22147;52.388;13.390;2023-05-10T04:41:59;9.85;69.32
47757;SHT35;22147;52.388;13.390;2023-05-10T04:44:29;9.91;69.31
47757;SHT35;22147;52.388;13.390;2023-05-10T04:46:56;9.97;69.28
47757;SHT35;22147;52.388;13.390;2023-05-10T04:49:25;10.12;68.63
47757;SHT35;22147;52.388;13.390;2023-05-10T04:51:53;10.20;68.62
47757;SHT35;22147;52.388;13.390;2023-05-10T04:54:22;10.22;68.29
47757;SHT35;22147;52.388;13.390;2023-05-10T04:56:51;10.29;68.34
47757;SHT35;22147;52.388;13.390;2023-05-10T04:59:19;10.42;67.83
47757;SHT35;22147;52.388;13.390;2023-05-10T05:01:48;10.49;67.84
47757;SHT35;22147;52.388;13.390;2023-05-10T05:04:16;10.60;67.47
47757;SHT35;22147;52.388;13.390;2023-05-10T05:06:46;10.71;67.46
47757;SHT35;22147;52.388;13.390;2023-05-10T05:09:16;10.88;66.61
47757;SHT35;22147;52.388;13.390;2023-05-10T05:11:47;11.01;66.31
47757;SHT35;22147;52.388;13.390;2023-05-10T05:14:17;11.08;66.00
47757;SHT35;22147;52.388;13.390;2023-05-10T05:16:47;11.26;65.72
47757;SHT35;22147;52.388;13.390;2023-05-10T05:19:17;11.35;65.53
47757;SHT35;22147;52.388;13.390;2023-05-10T05:21:47;11.46;64.52
47757;SHT35;22147;52.388;13.390;2023-05-10T05:24:17;11.62;64.50
47757;SHT35;22147;52.388;13.390;2023-05-10T05:26:48;11.86;63.77
47757;SHT35;22147;52.388;13.390;2023-05-10T05:29:16;11.93;63.09
47757;SHT35;22147;52.388;13.390;2023-05-10T05:31:44;12.05;62.78
47757;SHT35;22147;52.388;13.390;2023-05-10T05:34:13;12.25;62.30
47757;SHT35;22147;52.388;13.390;2023-05-10T05:36:41;12.34;61.51
47757;SHT35;22147;52.388;13.390;2023-05-10T05:39:10;12.45;61.48
47757;SHT35;22147;52.388;13.390;2023-05-10T05:41:38;12.71;61.14
47757;SHT35;22147;52.388;13.390;2023-05-10T05:44:07;12.96;61.56
47757;SHT35;22147;52.388;13.390;2023-05-10T05:46:35;12.99;60.27
47757;SHT35;22147;52.388;13.390;2023-05-10T05:49:04;13.30;60.52
47757;SHT35;22147;52.388;13.390;2023-05-10T05:51:32;13.47;59.48
47757;SHT35;22147;52.388;13.390;2023-05-10T05:54:01;13.57;59.13
47757;SHT35;22147;52.388;13.390;2023-05-10T05:56:29;13.78;58.90
47757;SHT35;22147;52.388;13.390;2023-05-10T05:58:57;14.05;57.79
47757;SHT35;22147;52.388;13.390;2023-05-10T06:01:26;14.26;56.70
47757;SHT35;22147;52.388;13.390;2023-05-10T06:03:54;14.34;56.43
47757;SHT35;22147;52.388;13.390;2023-05-10T06:06:23;14.54;56.56
47757;SHT35;22147;52.388;13.390;2023-05-10T06:08:51;14.60;55.35
47757;SHT35;22147;52.388;13.390;2023-05-10T06:11:20;14.91;55.25
47757;SHT35;22147;52.388;13.390;2023-05-10T06:13:51;15.09;54.79
47757;SHT35;22147;52.388;13.390;2023-05-10T06:16:19;15.30;54.30
47757;SHT35;22147;52.388;13.390;2023-05-10T06:18:48;15.50;53.28
47757;SHT35;22147;52.388;13.390;2023-05-10T06:21:16;15.70;54.08
47757;SHT35;22147;52.388;13.390;2023-05-10T06:23:45;15.82;53.47
47757;SHT35;22147;52.388;13.390;2023-05-10T06:26:13;16.21;52.91
47757;SHT35;22147;52.388;13.390;2023-05-10T06:28:42;16.55;52.15
47757;SHT35;22147;52.388;13.390;2023-05-10T06:31:10;16.59;51.39
47757;SHT35;22147;52.388;13.390;2023-05-10T06:33:38;16.30;50.50
47757;SHT35;22147;52.388;13.390;2023-05-10T06:36:07;16.32;51.62
47757;SHT35;22147;52.388;13.390;2023-05-10T06:38:35;16.61;51.21
47757;SHT35;22147;52.388;13.390;2023-05-10T06:41:04;16.84;50.57
47757;SHT35;22147;52.388;13.390;2023-05-10T06:43:32;16.77;49.80
47757;SHT35;22147;52.388;13.390;2023-05-10T06:46:01;16.73;50.79
47757;SHT35;22147;52.388;13.390;2023-05-10T06:48:29;16.98;49.98
47757;SHT35;22147;52.388;13.390;2023-05-10T06:50:58;17.16;49.72
47757;SHT35;22147;52.388;13.390;2023-05-10T06:53:26;17.43;49.59
47757;SHT35;22147;52.388;13.390;2023-05-10T06:55:54;17.57;50.10
47757;SHT35;22147;52.388;13.390;2023-05-10T06:58:23;17.90;48.47
47757;SHT35;22147;52.388;13.390;2023-05-10T07:00:51;17.84;47.95
47757;SHT35;22147;52.388;13.390;2023-05-10T07:03:20;17.60;48.66
47757;SHT35;22147;52.388;13.390;2023-05-10T07:05:48;17.81;48.25
47757;SHT35;22147;52.388;13.390;2023-05-10T07:08:17;17.62;48.02
47757;SHT35;22147;52.388;13.390;2023-05-10T07:10:45;18.01;48.58
47757;SHT35;22147;52.388;13.390;2023-05-10T07:13:14;18.10;48.07
47757;SHT35;22147;52.388;13.390;2023-05-10T07:15:42;18.06;47.06
47757;SHT35;22147;52.388;13.390;2023-05-10T07:18:10;18.32;47.04
47757;SHT35;22147;52.388;13.390;2023-05-10T07:20:39;18.62;46.88
47757;SHT35;22147;52.388;13.390;2023-05-10T07:23:07;18.73;46.64
47757;SHT35;22147;52.388;13.390;2023-05-10T07:25:36;18.51;46.04
47757;SHT35;22147;52.388;13.390;2023-05-10T07:28:04;18.27;47.75
47757;SHT35;22147;52.388;13.390;2023-05-10T07:30:32;18.25;46.61
47757;SHT35;22147;52.388;13.390;2023-05-10T07:33:01;18.51;47.19
47757;SHT35;22147;52.388;13.390;2023-05-10T07:35:29;18.68;46.72
47757;SHT35;22147;52.388;13.390;2023-05-10T07:37:58;18.62;46.41
47757;SHT35;22147;52.388;13.390;2023-05-10T07:40:27;18.76;46.39
47757;SHT35;22147;52.388;13.390;2023-05-10T07:42:55;19.06;46.38
47757;SHT35;22147;52.388;13.390;2023-05-10T07:45:23;19.48;45.24
47757;SHT35;22147;52.388;13.390;2023-05-10T07:47:52;19.54;44.61
47757;SHT35;22147;52.388;13.390;2023-05-10T07:50:20;18.72;45.51
47757;SHT35;22147;52.388;13.390;2023-05-10T07:52:51;18.71;46.33
47757;SHT35;22147;52.388;13.390;2023-05-10T07:55:20;18.66;46.75
47757;SHT35;22147;52.388;13.390;2023-05-10T07:57:51;19.34;45.58
47757;SHT35;22147;52.388;13.390;2023-05-10T08:00:21;19.32;47.15
47757;SHT35;22147;52.388;13.390;2023-05-10T08:02:49;19.31;45.68
47757;SHT35;22147;52.388;13.390;2023-05-10T08:05:18;19.18;46.08
47757;SHT35;22147;52.388;13.390;2023-05-10T08:07:48;19.76;45.06
47757;SHT35;22147;52.388;13.390;2023-05-10T08:10:18;19.86;43.42
47757;SHT35;22147;52.388;13.390;2023-05-10T08:12:48;19.52;44.36
47757;SHT35;22147;52.388;13.390;2023-05-10T08:15:18;19.94;43.66
47757;SHT35;22147;52.388;13.390;2023-05-10T08:17:48;20.06;45.66
47757;SHT35;22147;52.388;13.390;2023-05-10T08:20:18;20.19;43.48
47757;SHT35;22147;52.388;13.390;2023-05-10T08:22:49;20.37;44.57
47757;SHT35;22147;52.388;13.390;2023-05-10T08:25:20;19.85;43.81
47757;SHT35;22147;52.388;13.390;2023-05-10T08:27:50;19.96;43.56
47757;SHT35;22147;52.388;13.390;2023-05-10T08:30:20;20.00;43.94
47757;SHT35;22147;52.388;13.390;2023-05-10T08:32:50;20.27;45.74
47757;SHT35;22147;52.388;13.390;2023-05-10T08:35:20;20.88;44.70
47757;SHT35;22147;52.388;13.390;2023-05-10T08:37:51;20.92;42.86
47757;SHT35;22147;52.388;13.390;2023-05-10T08:40:26;20.96;42.55
47757;SHT35;22147;52.388;13.390;2023-05-10T08:43:06;20.95;42.86
47757;SHT35;22147;52.388;13.390;2023-05-10T08:45:43;20.67;42.65
47757;SHT35;22147;52.388;13.390;2023-05-10T08:48:17;20.58;43.49
47757;SHT35;22147;52.388;13.390;2023-05-10T08:50:48;20.52;43.03
47757;SHT35;22147;52.388;13.390;2023-05-10T08:53:19;21.09;43.93
47757;SHT35;22147;52.388;13.390;2023-05-10T08:55:49;21.25;42.43
47757;SHT35;22147;52.388;13.390;2023-05-10T08:58:20;21.44;42.60
47757;SHT35;22147;52.388;13.390;2023-05-10T09:00:50;21.50;41.22
47757;SHT35;22147;52.388;13.390;2023-05-10T09:03:21;21.50;42.61
47757;SHT35;22147;52.388;13.390;2023-05-10T09:05:51;21.37;42.51
47757;SHT35;22147;52.388;13.390;2023-05-10T09:08:23;21.74;42.26
47757;SHT35;22147;52.388;13.390;2023-05-10T09:10:55;21.81;42.64
47757;SHT35;22147;52.388;13.390;2023-05-10T09:13:25;21.90;41.97
47757;SHT35;22147;52.388;13.390;2023-05-10T09:15:56;21.54;42.75
47757;SHT35;22147;52.388;13.390;2023-05-10T09:18:31;21.80;41.53
47757;SHT35;22147;52.388;13.390;2023-05-10T09:21:01;21.91;40.74
47757;SHT35;22147;52.388;13.390;2023-05-10T09:23:31;22.00;41.10
47757;SHT35;22147;52.388;13.390;2023-05-10T09:26:06;21.44;43.28
47757;SHT35;22147;52.388;13.390;2023-05-10T09:28:54;21.54;42.01
47757;SHT35;22147;52.388;13.390;2023-05-10T09:31:48;21.71;41.54
47757;SHT35;22147;52.388;13.390;2023-05-10T09:34:30;22.08;41.72
47757;SHT35;22147;52.388;13.390;2023-05-10T09:37:02;22.07;41.30
47757;SHT35;22147;52.388;13.390;2023-05-10T09:39:37;22.24;40.54
47757;SHT35;22147;52.388;13.390;2023-05-10T09:42:10;22.35;40.61
47757;SHT35;22147;52.388;13.390;2023-05-10T09:44:42;22.43;41.44
47757;SHT35;22147;52.388;13.390;2023-05-10T09:47:18;22.28;41.33
47757;SHT35;22147;52.388;13.390;2023-05-10T09:49:53;22.52;40.36
47757;SHT35;22147;52.388;13.390;2023-05-10T09:52:25;22.38;39.37
47757;SHT35;22147;52.388;13.390;2023-05-10T09:54:55;22.24;41.41
47757;SHT35;22147;52.388;13.390;2023-05-10T09:57:25;22.56;41.18
47757;SHT35;22147;52.388;13.390;2023-05-10T09:59:56;22.83;39.99
47757;SHT35;22147;52.388;13.390;2023-05-10T10:02:32;22.56;39.39
47757;SHT35;22147;52.388;13.390;2023-05-10T10:05:02;22.31;41.10
47757;SHT35;22147;52.388;13.390;2023-05-10T10:07:34;22.14;42.22
47757;SHT35;22147;52.388;13.390;2023-05-10T10:10:07;22.35;41.52
47757;SHT35;22147;52.388;13.390;2023-05-10T10:12:41;22.69;40.41
47757;SHT35;22147;52.388;13.390;2023-05-10T10:15:12;22.50;41.24
47757;SHT35;22147;52.388;13.390;2023-05-10T10:17:46;22.63;41.99
47757;SHT35;22147;52.388;13.390;2023-05-10T10:20:20;23.11;40.44
47757;SHT35;22147;52.388;13.390;2023-05-10T10:22:49;23.24;39.46
47757;SHT35;22147;52.388;13.390;2023-05-10T10:25:21;23.35;39.05
47757;SHT35;22147;52.388;13.390;2023-05-10T10:30:49;23.49;39.68
47757;SHT35;22147;52.388;13.390;2023-05-10T10:34:26;22.93;39.45
47757;SHT35;22147;52.388;13.390;2023-05-10T10:36:47;23.42;39.59
47757;SHT35;22147;52.388;13.390;2023-05-10T10:39:20;22.77;41.49
47757;SHT35;22147;52.388;13.390;2023-05-10T10:41:57;23.07;40.05
47757;SHT35;22147;52.388;13.390;2023-05-10T10:47:29;23.21;39.55
47757;SHT35;22147;52.388;13.390;2023-05-10T10:50:07;23.41;39.08
47757;SHT35;22147;52.388;13.390;2023-05-10T10:52:44;23.71;39.75
47757;SHT35;22147;52.388;13.390;2023-05-10T10:55:19;23.95;38.32
47757;SHT35;22147;52.388;13.390;2023-05-10T10:57:56;23.92;37.66
47757;SHT35;22147;52.388;13.390;2023-05-10T11:00:38;23.72;37.52
47757;SHT35;22147;52.388;13.390;2023-05-10T11:03:15;23.44;39.67
47757;SHT35;22147;52.388;13.390;2023-05-10T11:05:58;23.35;39.45
47757;SHT35;22147;52.388;13.390;2023-05-10T11:08:32;23.18;38.98
47757;SHT35;22147;52.388;13.390;2023-05-10T11:11:07;23.26;38.39
47757;SHT35;22147;52.388;13.390;2023-05-10T11:13:46;23.37;38.71
47757;SHT35;22147;52.388;13.390;2023-05-10T11:16:25;23.45;38.02
47757;SHT35;22147;52.388;13.390;2023-05-10T11:19:10;23.82;39.11
47757;SHT35;22147;52.388;13.390;2023-05-10T11:24:57;23.35;36.85
47757;SHT35;22147;52.388;13.390;2023-05-10T11:27:26;23.21;38.13
47757;SHT35;22147;52.388;13.390;2023-05-10T11:29:54;22.89;39.33
47757;SHT35;22147;52.388;13.390;2023-05-10T11:32:23;22.77;38.96
47757;SHT35;22147;52.388;13.390;2023-05-10T11:34:51;23.18;39.95
47757;SHT35;22147;52.388;13.390;2023-05-10T11:37:19;23.49;39.74
47757;SHT35;22147;52.388;13.390;2023-05-10T11:39:47;23.52;39.32
47757;SHT35;22147;52.388;13.390;2023-05-10T11:42:17;23.16;37.80
47757;SHT35;22147;52.388;13.390;2023-05-10T11:44:47;23.39;38.35
47757;SHT35;22147;52.388;13.390;2023-05-10T11:47:18;23.61;39.02
47757;SHT35;22147;52.388;13.390;2023-05-10T11:49:48;23.78;37.54
47757;SHT35;22147;52.388;13.390;2023-05-10T11:52:19;23.78;37.28
47757;SHT35;22147;52.388;13.390;2023-05-10T11:54:54;23.65;37.19
47757;SHT35;22147;52.388;13.390;2023-05-10T11:57:27;23.38;37.54
47757;SHT35;22147;52.388;13.390;2023-05-10T11:59:58;23.52;38.01
47757;SHT35;22147;52.388;13.390;2023-05-10T12:02:29;23.74;39.14
47757;SHT35;22147;52.388;13.390;2023-05-10T12:05:00;23.54;35.70
47757;SHT35;22147;52.388;13.390;2023-05-10T12:07:31;23.51;37.12
47757;SHT35;22147;52.388;13.390;2023-05-10T12:10:12;23.68;37.38
47757;SHT35;22147;52.388;13.390;2023-05-10T12:12:47;23.69;36.49
47757;SHT35;22147;52.388;13.390;2023-05-10T12:15:22;23.76;36.91
47757;SHT35;22147;52.388;13.390;2023-05-10T12:17:53;23.58;36.94
47757;SHT35;22147;52.388;13.390;2023-05-10T12:20:27;23.44;36.04
47757;SHT35;22147;52.388;13.390;2023-05-10T12:22:59;23.55;36.47
47757;SHT35;22147;52.388;13.390;2023-05-10T12:25:36;23.76;36.57
47757;SHT35;22147;52.388;13.390;2023-05-10T12:28:10;23.54;35.85
47757;SHT35;22147;52.388;13.390;2023-05-10T12:30:40;23.41;36.79
47757;SHT35;22147;52.388;13.390;2023-05-10T12:33:13;23.65;36.36
47757;SHT35;22147;52.388;13.390;2023-05-10T12:35:51;23.48;36.67
47757;SHT35;22147;52.388;13.390;2023-05-10T12:38:46;23.75;37.54
47757;SHT35;22147;52.388;13.390;2023-05-10T12:41:19;23.69;37.01
47757;SHT35;22147;52.388;13.390;2023-05-10T12:43:51;23.97;36.67
47757;SHT35;22147;52.388;13.390;2023-05-10T12:46:21;24.04;35.49
47757;SHT35;22147;52.388;13.390;2023-05-10T12:48:52;24.10;36.27
47757;SHT35;22147;52.388;13.390;2023-05-10T12:51:37;23.93;36.66
47757;SHT35;22147;52.388;13.390;2023-05-10T12:54:08;23.82;35.54
47757;SHT35;22147;52.388;13.390;2023-05-10T12:56:38;23.74;35.05
47757;SHT35;22147;52.388;13.390;2023-05-10T12:59:08;23.90;37.90
47757;SHT35;22147;52.388;13.390;2023-05-10T13:01:38;24.13;38.70
47757;SHT35;22147;52.388;13.390;2023-05-10T13:04:08;24.16;35.13
47757;SHT35;22147;52.388;13.390;2023-05-10T13:06:38;24.12;36.00
47757;SHT35;22147;52.388;13.390;2023-05-10T13:09:09;24.63;38.11
47757;SHT35;22147;52.388;13.390;2023-05-10T13:11:39;24.52;36.25
47757;SHT35;22147;52.388;13.390;2023-05-10T13:14:10;24.23;36.54
47757;SHT35;22147;52.388;13.390;2023-05-10T13:16:40;24.09;35.56
47757;SHT35;22147;52.388;13.390;2023-05-10T13:19:10;24.45;36.08
47757;SHT35;22147;52.388;13.390;2023-05-10T13:21:42;24.98;34.03
47757;SHT35;22147;52.388;13.390;2023-05-10T13:24:13;25.19;34.12
47757;SHT35;22147;52.388;13.390;2023-05-10T13:26:43;24.65;34.70
47757;SHT35;22147;52.388;13.390;2023-05-10T13:29:13;24.68;36.26
47757;SHT35;22147;52.388;13.390;2023-05-10T13:31:42;25.03;35.49
47757;SHT35;22147;52.388;13.390;2023-05-10T13:34:11;25.12;34.40
47757;SHT35;22147;52.388;13.390;2023-05-10T13:36:40;25.28;33.80
47757;SHT35;22147;52.388;13.390;2023-05-10T13:39:08;25.18;34.81
47757;SHT35;22147;52.388;13.390;2023-05-10T13:41:37;24.84;34.27
47757;SHT35;22147;52.388;13.390;2023-05-10T13:44:05;24.12;35.60
47757;SHT35;22147;52.388;13.390;2023-05-10T13:46:34;23.99;35.79
47757;SHT35;22147;52.388;13.390;2023-05-10T13:49:03;23.90;36.45
47757;SHT35;22147;52.388;13.390;2023-05-10T13:51:32;24.31;34.41
47757;SHT35;22147;52.388;13.390;2023-05-10T13:54:03;24.47;34.44
47757;SHT35;22147;52.388;13.390;2023-05-10T13:56:31;24.54;35.48
47757;SHT35;22147;52.388;13.390;2023-05-10T13:59:00;24.20;35.18
47757;SHT35;22147;52.388;13.390;2023-05-10T14:01:29;24.67;36.24
47757;SHT35;22147;52.388;13.390;2023-05-10T14:03:59;24.77;35.14
47757;SHT35;22147;52.388;13.390;2023-05-10T14:06:27;25.50;32.76
47757;SHT35;22147;52.388;13.390;2023-05-10T14:08:56;26.07;33.96
47757;SHT35;22147;52.388;13.390;2023-05-10T14:11:24;25.88;32.43
47757;SHT35;22147;52.388;13.390;2023-05-10T14:13:53;25.37;31.84
47757;SHT35;22147;52.388;13.390;2023-05-10T14:16:22;25.73;34.76
47757;SHT35;22147;52.388;13.390;2023-05-10T14:18:50;26.07;32.70
47757;SHT35;22147;52.388;13.390;2023-05-10T14:21:19;26.53;31.12
47757;SHT35;22147;52.388;13.390;2023-05-10T14:23:48;26.42;30.98
47757;SHT35;22147;52.388;13.390;2023-05-10T14:26:16;26.61;30.08
47757;SHT35;22147;52.388;13.390;2023-05-10T14:28:45;26.70;29.60
47757;SHT35;22147;52.388;13.390;2023-05-10T14:31:13;25.54;29.88
47757;SHT35;22147;52.388;13.390;2023-05-10T14:33:42;25.46;32.32
47757;SHT35;22147;52.388;13.390;2023-05-10T14:40:47;25.56;31.98
47757;SHT35;22147;52.388;13.390;2023-05-10T14:43:18;24.84;32.59
47757;SHT35;22147;52.388;13.390;2023-05-10T14:45:48;25.01;33.21
47757;SHT35;22147;52.388;13.390;2023-05-10T14:48:18;23.97;33.81
47757;SHT35;22147;52.388;13.390;2023-05-10T14:50:48;23.82;35.50
47757;SHT35;22147;52.388;13.390;2023-05-10T14:53:20;24.10;33.41
47757;SHT35;22147;52.388;13.390;2023-05-10T14:55:50;24.24;33.85
47757;SHT35;22147;52.388;13.390;2023-05-10T14:58:19;24.19;33.84
47757;SHT35;22147;52.388;13.390;2023-05-10T15:00:49;24.39;35.83
47757;SHT35;22147;52.388;13.390;2023-05-10T15:03:20;24.19;35.37
47757;SHT35;22147;52.388;13.390;2023-05-10T15:05:50;23.31;35.78
47757;SHT35;22147;52.388;13.390;2023-05-10T15:08:21;23.52;35.51
47757;SHT35;22147;52.388;13.390;2023-05-10T15:10:51;23.57;35.00
47757;SHT35;22147;52.388;13.390;2023-05-10T15:13:22;23.51;36.38
47757;SHT35;22147;52.388;13.390;2023-05-10T15:15:52;23.65;37.85
47757;SHT35;22147;52.388;13.390;2023-05-10T15:18:22;23.61;37.05
47757;SHT35;22147;52.388;13.390;2023-05-10T15:20:53;23.72;36.90
47757;SHT35;22147;52.388;13.390;2023-05-10T15:23:25;23.74;36.06
47757;SHT35;22147;52.388;13.390;2023-05-10T15:25:53;23.93;35.90
47757;SHT35;22147;52.388;13.390;2023-05-10T15:28:25;24.30;35.22
47757;SHT35;22147;52.388;13.390;2023-05-10T15:30:53;24.59;35.82
47757;SHT35;22147;52.388;13.390;2023-05-10T15:33:22;24.87;35.83
47757;SHT35;22147;52.388;13.390;2023-05-10T15:35:52;25.29;34.53
47757;SHT35;22147;52.388;13.390;2023-05-10T15:38:22;25.49;33.91
47757;SHT35;22147;52.388;13.390;2023-05-10T15:40:49;25.56;35.84
47757;SHT35;22147;52.388;13.390;2023-05-10T15:43:19;24.71;34.96
47757;SHT35;22147;52.388;13.390;2023-05-10T15:45:52;24.65;35.75
47757;SHT35;22147;52.388;13.390;2023-05-10T15:48:20;24.61;36.12
47757;SHT35;22147;52.388;13.390;2023-05-10T15:50:50;24.34;36.12
47757;SHT35;22147;52.388;13.390;2023-05-10T15:53:20;24.06;37.00
47757;SHT35;22147;52.388;13.390;2023-05-10T15:59:41;23.47;38.45
47757;SHT35;22147;52.388;13.390;2023-05-10T16:02:11;23.30;44.57
47757;SHT35;22147;52.388;13.390;2023-05-10T16:04:40;22.98;47.48
47757;SHT35;22147;52.388;13.390;2023-05-10T16:11:42;21.78;53.80
47757;SHT35;22147;52.388;13.390;2023-05-10T16:14:13;21.74;53.76
47757;SHT35;22147;52.388;13.390;2023-05-10T16:16:43;21.53;54.14
47757;SHT35;22147;52.388;13.390;2023-05-10T16:19:13;21.53;54.35
47757;SHT35;22147;52.388;13.390;2023-05-10T16:21:46;21.53;54.47
47757;SHT35;22147;52.388;13.390;2023-05-10T16:24:16;21.57;54.22
47757;SHT35;22147;52.388;13.390;2023-05-10T16:26:46;21.42;55.58